createdAt,value
2022-11-25T00:03:01.664Z,99397.03
2022-11-25T00:13:07.374Z,99399.27
2022-11-25T00:23:13.097Z,99396.45
2022-11-25T00:33:18.650Z,99391.38
2022-11-25T00:43:41.824Z,99391.36
2022-11-25T00:53:47.502Z,99394.39
2022-11-25T01:03:54.015Z,99399.48
2022-11-25T01:14:01.408Z,99407.28
2022-11-25T01:24:09.000Z,99407.85
2022-11-25T01:34:17.669Z,99422.02
2022-11-25T01:44:25.794Z,99436.08
2022-11-25T01:54:36.393Z,99440.98
2022-11-25T02:04:44.262Z,99436.11
2022-11-25T02:14:52.150Z,99432.67
2022-11-25T02:25:03.562Z,99436.70
2022-11-25T02:35:31.389Z,99443.80
2022-11-25T02:45:44.555Z,99438.96
2022-11-25T02:55:50.764Z,99445.41
2022-11-25T03:05:56.383Z,99445.79
2022-11-25T03:16:02.238Z,99459.14
2022-11-25T03:26:09.489Z,99460.40
2022-11-25T03:36:15.037Z,99470.40
2022-11-25T03:46:20.658Z,99470.95
2022-11-25T03:56:27.110Z,99471.55
2022-11-25T04:06:33.080Z,99472.14
2022-11-25T04:16:38.734Z,99468.85
2022-11-25T04:26:44.519Z,99471.73
2022-11-25T04:36:50.151Z,99477.35
2022-11-25T04:46:55.866Z,99480.39
2022-11-25T04:57:01.448Z,99485.81
2022-11-25T05:07:07.015Z,99492.00
2022-11-25T05:17:16.536Z,99503.11
2022-11-25T05:27:22.650Z,99508.44
2022-11-25T05:37:28.267Z,99515.31
2022-11-25T05:47:34.342Z,99512.71
2022-11-25T05:57:39.941Z,99528.70
2022-11-25T06:07:45.992Z,99540.00
2022-11-25T06:17:51.676Z,99548.77
2022-11-25T06:28:12.536Z,99555.39
2022-11-25T06:38:19.058Z,99569.23
2022-11-25T06:48:24.625Z,99578.02
2022-11-25T06:58:35.924Z,99579.41
2022-11-25T07:08:42.656Z,99579.50
2022-11-25T07:18:48.309Z,99578.35
2022-11-25T07:28:58.848Z,99586.27
2022-11-25T07:39:07.491Z,99592.71
2022-11-25T07:49:15.405Z,99597.17
2022-11-25T07:59:22.869Z,99593.14
2022-11-25T08:09:28.580Z,99592.50
2022-11-25T08:19:34.657Z,99599.31
2022-11-25T08:29:40.937Z,99607.68
2022-11-25T08:39:54.501Z,99610.73
2022-11-25T08:50:00.484Z,99614.84
2022-11-25T09:00:10.010Z,99623.67
2022-11-25T09:10:18.794Z,99630.39
2022-11-25T09:20:24.757Z,99638.05
2022-11-25T09:30:30.575Z,99636.46
2022-11-25T09:40:43.368Z,99636.58
2022-11-25T09:51:01.618Z,99641.45
2022-11-25T10:01:15.016Z,99641.05
2022-11-25T10:11:36.091Z,99642.16
2022-11-25T10:21:42.584Z,99645.59
2022-11-25T10:31:49.114Z,99646.08
2022-11-25T10:41:59.454Z,99637.38
2022-11-25T10:52:12.248Z,99645.83
2022-11-25T11:02:26.064Z,99648.47
2022-11-25T11:12:32.175Z,99640.34
2022-11-25T11:22:46.853Z,99643.23
2022-11-25T11:33:01.661Z,99645.64
2022-11-25T11:43:25.108Z,99644.18
2022-11-25T11:53:38.122Z,99647.40
2022-11-25T12:03:56.472Z,99650.82
2022-11-25T12:14:07.914Z,99651.74
2022-11-25T12:24:20.929Z,99653.52
2022-11-25T12:34:35.656Z,99658.60
2022-11-25T12:44:51.307Z,99668.05
2022-11-25T12:55:09.653Z,99673.46
2022-11-25T13:05:41.019Z,99672.76
2022-11-25T13:15:49.152Z,99677.48
2022-11-25T13:26:16.199Z,99686.47
2022-11-25T13:36:23.545Z,99689.96
2022-11-25T13:46:35.522Z,99694.36
2022-11-25T13:56:41.467Z,99686.29
2022-11-25T14:07:20.105Z,99688.00
2022-11-25T14:17:48.325Z,99695.90
2022-11-25T14:28:04.592Z,99708.56
2022-11-25T14:38:17.226Z,99715.31
2022-11-25T14:48:27.290Z,99715.20
2022-11-25T14:58:33.334Z,99722.35
2022-11-25T15:08:43.838Z,99721.86
2022-11-25T15:18:52.782Z,99725.23
2022-11-25T15:29:00.198Z,99729.55
2022-11-25T15:39:25.145Z,99728.89
2022-11-25T15:49:30.770Z,99733.60
2022-11-25T15:59:47.564Z,99740.20
2022-11-25T16:09:54.206Z,99742.85
2022-11-25T16:19:59.831Z,99743.36
2022-11-25T16:30:20.399Z,99749.42
2022-11-25T16:40:27.841Z,99749.77
2022-11-25T16:50:33.461Z,99749.14
2022-11-25T17:00:39.054Z,99749.20
2022-11-25T17:10:46.079Z,99756.02
2022-11-25T17:20:50.277Z,99755.30
2022-11-25T17:30:56.115Z,99769.37
2022-11-25T17:41:01.671Z,99773.57
2022-11-25T17:51:07.870Z,99778.77
2022-11-25T18:01:14.290Z,99782.98
2022-11-25T18:11:22.990Z,99786.86
2022-11-25T18:21:28.937Z,99800.33
2022-11-25T18:31:34.511Z,99803.59
2022-11-25T18:41:41.655Z,99807.20
2022-11-25T18:51:47.699Z,99813.61
2022-11-25T19:01:53.312Z,99821.48
2022-11-25T19:11:59.126Z,99821.74
2022-11-25T19:22:04.936Z,99825.27
2022-11-25T19:32:20.273Z,99826.16
2022-11-25T19:42:28.303Z,99835.71
2022-11-25T19:52:37.802Z,99846.45
2022-11-25T20:02:44.248Z,99845.33
2022-11-25T20:12:50.166Z,99849.94
2022-11-25T20:23:00.881Z,99860.89
2022-11-25T20:33:06.601Z,99872.10
2022-11-25T20:43:22.480Z,99884.88
2022-11-25T20:53:30.387Z,99890.64
2022-11-25T21:03:36.177Z,99890.34
2022-11-25T21:13:42.156Z,99898.84
2022-11-25T21:23:49.607Z,99905.19
2022-11-25T21:33:59.949Z,99902.42
2022-11-25T21:44:07.613Z,99911.73
2022-11-25T21:54:13.185Z,99920.31
2022-11-25T22:04:20.962Z,99931.88
2022-11-25T22:14:34.226Z,99939.80
2022-11-25T22:24:40.155Z,99939.37
2022-11-25T22:34:46.280Z,99945.71
2022-11-25T22:44:52.710Z,99945.04
2022-11-25T22:55:01.042Z,99942.21
2022-11-25T23:05:16.308Z,99949.11
2022-11-25T23:15:24.059Z,99958.69
2022-11-25T23:25:29.883Z,99962.21
2022-11-25T23:35:39.037Z,99970.16
2022-11-25T23:45:50.887Z,99973.06
2022-11-25T23:55:56.656Z,99977.20
